Time;durP1;ratioP1;P1;durP2;ratioP2;P2;SDS_P1;SDS_P2;PMS_P1;PMS_P2;Temp;Humidity;BMP_temperature;BMP_pressure;BME280_temperature;BME280_humidity;BME280_pressure;Samples;Min_cycle;Max_cycle;Signal;HPM_P1;HPM_P2
2021/01/10 00:00:08;;;;;;;14.73;8.60;;;1.40;99.90;;;;;;4996883;28;20827;-89
2021/01/10 00:02:34;;;;;;;15.47;9.07;;;1.50;99.90;;;;;;4997894;28;20664;-86
2021/01/10 00:05:00;;;;;;;11.13;8.50;;;1.40;99.90;;;;;;4994949;28;20484;-87
2021/01/10 00:07:26;;;;;;;10.77;7.40;;;1.40;99.90;;;;;;5009083;28;20194;-89
2021/01/10 00:09:52;;;;;;;13.17;8.87;;;1.50;99.90;;;;;;4980417;28;20436;-90
2021/01/10 00:12:25;;;;;;;11.27;7.07;;;1.50;99.90;;;;;;4992681;28;20259;-88
2021/01/10 00:14:51;;;;;;;12.67;8.20;;;1.50;99.90;;;;;;4991988;28;20495;-86
2021/01/10 00:17:17;;;;;;;13.67;9.17;;;1.50;99.90;;;;;;4994480;28;20448;-89
2021/01/10 00:19:48;;;;;;;11.60;7.97;;;1.50;99.90;;;;;;4994348;28;20430;-84
2021/01/10 00:22:18;;;;;;;12.27;9.03;;;1.50;99.90;;;;;;4993061;28;20453;-86
2021/01/10 00:24:44;;;;;;;12.10;8.47;;;1.50;99.90;;;;;;4991965;28;20984;-87
2021/01/10 00:27:16;;;;;;;10.87;7.80;;;1.50;99.90;;;;;;4995428;28;20434;-87
2021/01/10 00:29:45;;;;;;;12.60;8.17;;;1.50;99.90;;;;;;5008191;28;20450;-86
2021/01/10 00:32:11;;;;;;;11.97;8.10;;;1.50;99.90;;;;;;5009253;28;20453;-86
2021/01/10 00:34:39;;;;;;;13.07;7.90;;;1.50;99.90;;;;;;4993867;28;20443;-85
2021/01/10 00:37:17;;;;;;;12.53;8.53;;;1.50;99.90;;;;;;4992910;28;20272;-87
2021/01/10 00:39:44;;;;;;;12.97;8.80;;;1.50;99.90;;;;;;4991893;28;20443;-86
2021/01/10 00:42:11;;;;;;;12.87;8.07;;;1.50;99.90;;;;;;4991589;28;20473;-82
2021/01/10 00:44:37;;;;;;;15.53;8.97;;;1.50;99.90;;;;;;4990013;28;20437;-85
2021/01/10 00:47:06;;;;;;;15.30;8.80;;;1.50;99.90;;;;;;4988031;28;20464;-87
2021/01/10 00:49:33;;;;;;;12.47;8.93;;;1.50;99.90;;;;;;4988486;28;20528;-86
2021/01/10 00:51:59;;;;;;;12.43;7.67;;;1.40;99.90;;;;;;4988864;28;20444;-85
2021/01/10 00:54:24;;;;;;;12.13;8.77;;;1.50;99.90;;;;;;4989381;28;20796;-87
2021/01/10 00:56:50;;;;;;;11.83;7.67;;;1.50;99.90;;;;;;4986984;28;20893;-85
2021/01/10 00:59:16;;;;;;;16.50;8.53;;;1.40;99.90;;;;;;5008998;28;20201;-84
2021/01/10 01:01:42;;;;;;;11.70;9.07;;;1.40;99.90;;;;;;4988013;28;20207;-87
2021/01/10 01:04:08;;;;;;;14.03;8.20;;;1.40;99.90;;;;;;4990534;28;20345;-86
2021/01/10 01:06:34;;;;;;;12.93;9.17;;;1.40;99.90;;;;;;4990646;28;20490;-86
2021/01/10 01:08:59;;;;;;;12.63;8.43;;;1.40;99.90;;;;;;4992269;28;20184;-83
2021/01/10 01:11:33;;;;;;;10.47;8.37;;;1.40;99.90;;;;;;4990021;28;20440;-85
2021/01/10 01:14:03;;;;;;;15.43;8.50;;;1.50;99.90;;;;;;4989700;28;20698;-83
2021/01/10 01:16:28;;;;;;;9.40;7.20;;;1.50;99.90;;;;;;4991253;28;20486;-85
2021/01/10 01:18:54;;;;;;;14.53;9.07;;;1.40;99.90;;;;;;4988982;28;20444;-87
2021/01/10 01:21:21;;;;;;;17.47;8.33;;;1.40;99.90;;;;;;4990662;28;20320;-84
2021/01/10 01:23:49;;;;;;;11.00;8.27;;;1.40;99.90;;;;;;4989847;28;20217;-85
2021/01/10 01:26:20;;;;;;;13.03;6.97;;;1.40;99.90;;;;;;4993339;28;20447;-87
2021/01/10 01:28:49;;;;;;;12.03;8.00;;;1.40;99.90;;;;;;4987472;28;20519;-87
2021/01/10 01:31:20;;;;;;;14.37;8.80;;;1.40;99.90;;;;;;4990323;28;20488;-86
2021/01/10 01:33:50;;;;;;;12.03;8.50;;;1.40;99.90;;;;;;5006259;28;20630;-84
2021/01/10 01:36:18;;;;;;;16.80;8.70;;;1.40;99.90;;;;;;4989652;28;21024;-86
2021/01/10 01:38:45;;;;;;;16.10;8.53;;;1.30;99.90;;;;;;4976123;28;20453;-84
2021/01/10 01:41:11;;;;;;;16.30;9.77;;;1.20;99.90;;;;;;4988754;28;20443;-86
2021/01/10 01:43:38;;;;;;;12.40;8.20;;;1.10;99.90;;;;;;5005951;28;20470;-87
2021/01/10 01:46:06;;;;;;;11.23;8.27;;;1.00;99.90;;;;;;4991171;28;20514;-87
2021/01/10 01:48:32;;;;;;;14.27;8.97;;;1.00;99.90;;;;;;4992296;28;20443;-87
2021/01/10 01:50:59;;;;;;;11.47;7.83;;;0.90;99.90;;;;;;4989104;28;20447;-88
2021/01/10 01:53:26;;;;;;;12.37;7.60;;;0.90;99.90;;;;;;4991522;28;20471;-84
2021/01/10 01:55:54;;;;;;;11.60;8.20;;;0.90;99.90;;;;;;4992748;28;20476;-87
2021/01/10 01:58:24;;;;;;;14.20;8.07;;;0.90;99.90;;;;;;4990690;28;20463;-85
2021/01/10 02:00:50;;;;;;;11.00;6.67;;;0.90;99.90;;;;;;4990464;28;20825;-83
2021/01/10 02:03:37;;;;;;;12.03;8.50;;;0.90;99.90;;;;;;4989997;28;20464;-85
2021/01/10 02:06:13;;;;;;;13.20;8.27;;;0.90;99.90;;;;;;4990848;28;20456;-85
2021/01/10 02:08:39;;;;;;;14.00;8.30;;;1.00;99.90;;;;;;4988216;28;20447;-87
2021/01/10 02:11:07;;;;;;;13.87;8.73;;;0.90;99.90;;;;;;4989846;28;20450;-87
2021/01/10 02:13:34;;;;;;;12.93;8.67;;;1.00;99.90;;;;;;4991428;28;20463;-86
2021/01/10 02:16:04;;;;;;;12.67;8.17;;;1.00;99.90;;;;;;4975824;28;20479;-87
2021/01/10 02:18:32;;;;;;;12.43;8.10;;;1.00;99.90;;;;;;4990954;28;20833;-86
2021/01/10 02:21:08;;;;;;;14.47;8.50;;;0.90;99.90;;;;;;4991043;28;20455;-84
2021/01/10 02:23:35;;;;;;;11.50;7.67;;;0.80;99.90;;;;;;4992482;28;20460;-85
2021/01/10 02:26:05;;;;;;;14.10;8.93;;;0.80;99.90;;;;;;4985991;28;20490;-85
2021/01/10 02:28:32;;;;;;;20.33;9.10;;;0.80;99.90;;;;;;4985242;28;20459;-86
2021/01/10 02:31:00;;;;;;;12.40;7.57;;;0.80;99.90;;;;;;4983803;28;20475;-84
2021/01/10 02:33:48;;;;;;;9.90;6.50;;;0.90;99.90;;;;;;4988326;28;20543;-87
2021/01/10 02:36:31;;;;;;;12.57;8.40;;;0.90;99.90;;;;;;5003248;28;21008;-84
2021/01/10 02:39:11;;;;;;;14.70;8.43;;;0.80;99.90;;;;;;4986011;28;20784;-85
2021/01/10 02:41:49;;;;;;;12.37;7.30;;;0.90;99.90;;;;;;4986455;28;20983;-85
2021/01/10 02:44:27;;;;;;;14.47;7.77;;;0.90;99.90;;;;;;4986433;28;20822;-85
2021/01/10 02:46:54;;;;;;;11.83;7.20;;;0.80;99.90;;;;;;4987711;28;20435;-83
2021/01/10 02:49:20;;;;;;;9.17;6.53;;;0.80;99.90;;;;;;4984489;28;21547;-86
2021/01/10 02:51:47;;;;;;;11.87;7.87;;;0.80;99.90;;;;;;4988248;28;20440;-84
2021/01/10 02:54:14;;;;;;;9.30;6.83;;;0.80;99.90;;;;;;4986450;28;20473;-85
2021/01/10 02:56:45;;;;;;;10.20;7.50;;;0.80;99.90;;;;;;4988599;28;20471;-85
2021/01/10 02:59:15;;;;;;;11.43;7.90;;;0.80;99.90;;;;;;4986908;28;20465;-86
2021/01/10 03:01:43;;;;;;;10.43;7.23;;;0.70;99.90;;;;;;4987418;28;20805;-83
2021/01/10 03:04:09;;;;;;;10.03;7.27;;;0.70;99.90;;;;;;4951322;28;20463;-87
2021/01/10 03:06:35;;;;;;;12.17;7.77;;;0.70;99.90;;;;;;4985721;28;20451;-82
2021/01/10 03:09:01;;;;;;;10.03;6.63;;;0.70;99.90;;;;;;4988347;28;20436;-84
2021/01/10 03:11:27;;;;;;;9.83;6.90;;;0.70;99.90;;;;;;4990448;28;20443;-86
2021/01/10 03:13:53;;;;;;;11.00;7.57;;;0.70;99.90;;;;;;4990766;28;20219;-84
2021/01/10 03:16:19;;;;;;;10.00;6.37;;;0.70;99.90;;;;;;4993792;28;20471;-84
2021/01/10 03:18:45;;;;;;;9.73;6.40;;;0.70;99.90;;;;;;4997435;28;20189;-85
2021/01/10 03:21:11;;;;;;;17.53;8.03;;;0.70;99.90;;;;;;4997037;28;20441;-85
2021/01/10 03:23:37;;;;;;;8.10;5.27;;;0.70;99.90;;;;;;4989770;28;20232;-85
2021/01/10 03:26:02;;;;;;;12.10;6.60;;;0.70;99.90;;;;;;4990508;28;20192;-84
2021/01/10 03:28:28;;;;;;;11.93;6.67;;;0.70;99.90;;;;;;4994748;28;20193;-87
2021/01/10 03:30:54;;;;;;;6.40;5.40;;;0.60;99.90;;;;;;5011556;28;20557;-85
2021/01/10 03:33:19;;;;;;;9.93;7.00;;;0.60;99.90;;;;;;5009532;28;21815;-87
2021/01/10 03:35:45;;;;;;;10.90;6.50;;;0.60;99.90;;;;;;4978943;28;20240;-86
2021/01/10 03:38:11;;;;;;;11.63;7.57;;;0.60;99.90;;;;;;4994545;28;20219;-87
2021/01/10 03:40:36;;;;;;;9.43;6.47;;;0.50;99.90;;;;;;4995531;28;20199;-86
2021/01/10 03:43:02;;;;;;;7.37;5.40;;;0.50;99.90;;;;;;4996702;28;20212;-87
2021/01/10 03:45:28;;;;;;;7.60;5.67;;;0.50;99.90;;;;;;4980030;28;20299;-87
2021/01/10 03:47:54;;;;;;;10.50;6.13;;;0.50;99.90;;;;;;4996514;28;20226;-88
2021/01/10 03:50:20;;;;;;;9.57;6.80;;;0.50;99.90;;;;;;4997937;28;20302;-87
2021/01/10 03:52:45;;;;;;;11.07;6.23;;;0.50;99.90;;;;;;4996109;28;20467;-85
2021/01/10 03:55:11;;;;;;;11.40;6.23;;;0.50;99.90;;;;;;4980841;28;20197;-87
2021/01/10 03:57:38;;;;;;;10.20;6.73;;;0.50;99.90;;;;;;4993654;28;20196;-86
2021/01/10 04:00:06;;;;;;;10.13;7.13;;;0.50;99.90;;;;;;4993235;28;20434;-88
2021/01/10 04:02:32;;;;;;;10.40;6.03;;;0.50;99.90;;;;;;4991367;28;20507;-89
2021/01/10 04:04:58;;;;;;;9.30;7.03;;;0.40;99.90;;;;;;4994396;28;20449;-88
2021/01/10 04:07:23;;;;;;;9.30;6.20;;;0.40;99.90;;;;;;4994046;28;20195;-87
2021/01/10 04:09:52;;;;;;;11.27;7.20;;;0.20;99.90;;;;;;4992720;28;20446;-88
2021/01/10 04:12:17;;;;;;;11.10;7.23;;;0.20;99.90;;;;;;4995247;28;20212;-87
2021/01/10 04:14:43;;;;;;;9.60;6.30;;;0.20;99.90;;;;;;5007884;28;20514;-87
2021/01/10 04:17:09;;;;;;;9.60;6.30;;;0.20;99.90;;;;;;4995463;28;20235;-86
2021/01/10 04:19:35;;;;;;;12.20;7.67;;;0.20;99.90;;;;;;4995765;28;21505;-84
2021/01/10 04:22:03;;;;;;;7.30;5.20;;;0.20;99.90;;;;;;4992203;28;20504;-87
2021/01/10 04:24:29;;;;;;;10.37;6.97;;;0.10;99.90;;;;;;4994478;28;20559;-88
2021/01/10 04:26:54;;;;;;;11.10;6.40;;;0.20;99.90;;;;;;4977955;28;20454;-88
2021/01/10 04:29:20;;;;;;;17.20;6.63;;;0.20;99.90;;;;;;5007958;28;20191;-84
2021/01/10 04:31:49;;;;;;;9.93;5.77;;;0.10;99.90;;;;;;4991319;28;20249;-84
2021/01/10 04:34:16;;;;;;;7.97;6.17;;;0.10;99.90;;;;;;4990094;28;20588;-88
2021/01/10 04:36:42;;;;;;;12.63;6.63;;;0.10;99.90;;;;;;4990843;28;20917;-85
2021/01/10 04:39:08;;;;;;;13.93;7.03;;;0.10;99.90;;;;;;4992027;28;20534;-87
2021/01/10 04:41:34;;;;;;;8.47;5.43;;;0.10;99.90;;;;;;4991203;28;20254;-87
2021/01/10 04:44:01;;;;;;;10.30;6.80;;;0.10;99.90;;;;;;5003246;28;22494;-88
2021/01/10 04:46:28;;;;;;;9.57;6.27;;;0.10;99.90;;;;;;4992588;28;20471;-88
2021/01/10 04:48:56;;;;;;;12.17;6.80;;;0.00;99.90;;;;;;5004846;28;20447;-88
2021/01/10 04:51:25;;;;;;;11.03;7.27;;;0.00;99.90;;;;;;4988639;28;20443;-86
2021/01/10 04:53:55;;;;;;;8.60;5.57;;;-0.10;99.90;;;;;;4988153;28;20517;-87
2021/01/10 04:56:27;;;;;;;12.63;7.23;;;-0.10;99.90;;;;;;5007758;28;20848;-86
2021/01/10 04:58:53;;;;;;;13.40;6.53;;;-0.20;99.90;;;;;;4990976;28;20483;-85
2021/01/10 05:01:23;;;;;;;6.73;5.20;;;-0.20;99.90;;;;;;4991719;28;20447;-84
2021/01/10 05:03:50;;;;;;;10.50;6.57;;;-0.10;99.90;;;;;;4991473;28;20455;-85
2021/01/10 05:06:19;;;;;;;8.60;6.50;;;-0.10;99.90;;;;;;4993151;28;20571;-88
2021/01/10 05:08:45;;;;;;;8.17;6.20;;;-0.10;99.90;;;;;;5005937;28;20444;-88
2021/01/10 05:11:11;;;;;;;10.47;6.70;;;-0.10;99.90;;;;;;4996425;28;20445;-87
2021/01/10 05:13:37;;;;;;;7.60;5.63;;;-0.10;99.90;;;;;;4989319;28;20461;-88
2021/01/10 05:16:05;;;;;;;12.47;6.87;;;-0.20;99.90;;;;;;4993273;28;20308;-84
2021/01/10 05:18:32;;;;;;;12.57;6.60;;;-0.30;99.90;;;;;;5006236;28;20258;-86
2021/01/10 05:20:57;;;;;;;7.83;4.60;;;-0.30;99.90;;;;;;4994010;28;20808;-85
2021/01/10 05:23:27;;;;;;;10.23;5.63;;;-0.40;99.90;;;;;;4989027;28;20576;-86
2021/01/10 05:26:06;;;;;;;13.60;6.90;;;-0.40;99.90;;;;;;4993233;28;20197;-87
2021/01/10 05:28:36;;;;;;;13.00;7.17;;;-0.50;99.90;;;;;;4993336;28;20501;-84
2021/01/10 05:31:08;;;;;;;9.60;6.20;;;-0.60;99.90;;;;;;4974611;28;20510;-84
2021/01/10 05:33:55;;;;;;;5.17;3.47;;;-0.70;99.90;;;;;;4989985;28;20468;-88
2021/01/10 05:36:26;;;;;;;10.03;5.17;;;-0.70;99.90;;;;;;4993100;28;20477;-84
2021/01/10 05:38:52;;;;;;;10.90;6.00;;;-0.80;99.90;;;;;;4989371;28;20469;-87
2021/01/10 05:41:18;;;;;;;9.17;5.43;;;-0.80;99.90;;;;;;4991048;28;20440;-84
2021/01/10 05:44:00;;;;;;;7.50;5.27;;;-0.80;99.90;;;;;;4991594;28;20450;-84
2021/01/10 05:46:32;;;;;;;14.60;7.60;;;-0.90;99.90;;;;;;4989645;28;20445;-84
2021/01/10 05:48:59;;;;;;;10.40;6.73;;;-0.90;99.90;;;;;;4992946;28;20448;-85
2021/01/10 05:51:28;;;;;;;7.37;5.60;;;-0.90;99.90;;;;;;4991761;28;20919;-84
2021/01/10 05:53:54;;;;;;;6.60;4.47;;;-0.90;99.90;;;;;;4992532;28;20452;-85
2021/01/10 05:56:19;;;;;;;8.00;5.07;;;-0.90;99.90;;;;;;4993806;28;20459;-87
2021/01/10 05:58:54;;;;;;;7.73;5.40;;;-0.90;99.90;;;;;;4994674;28;20433;-85
2021/01/10 06:01:21;;;;;;;12.87;6.27;;;-1.00;99.90;;;;;;4993257;28;20177;-84
2021/01/10 06:03:47;;;;;;;10.00;6.77;;;-1.00;99.90;;;;;;4994844;28;20471;-86
2021/01/10 06:06:13;;;;;;;8.90;5.77;;;-1.00;99.90;;;;;;4997572;28;20453;-87
2021/01/10 06:08:40;;;;;;;10.03;6.30;;;-1.00;99.90;;;;;;4993552;28;20455;-86
2021/01/10 06:11:24;;;;;;;11.60;6.77;;;-1.10;99.90;;;;;;4991265;28;20312;-84
2021/01/10 06:14:01;;;;;;;9.87;6.13;;;-1.10;99.90;;;;;;4995014;28;20458;-85
2021/01/10 06:16:30;;;;;;;17.73;8.00;;;-1.10;99.90;;;;;;4991141;28;20493;-85
2021/01/10 06:19:00;;;;;;;9.73;6.40;;;-1.10;99.90;;;;;;4992980;28;20530;-86
2021/01/10 06:21:27;;;;;;;12.13;7.13;;;-1.10;99.90;;;;;;4993338;28;20454;-82
2021/01/10 06:24:01;;;;;;;15.30;7.90;;;-1.10;99.90;;;;;;4994271;28;20500;-86
2021/01/10 06:26:29;;;;;;;10.20;6.20;;;-1.20;99.90;;;;;;4992434;28;20446;-86
2021/01/10 06:29:06;;;;;;;7.50;5.70;;;-1.20;99.90;;;;;;4991915;28;20482;-82
2021/01/10 06:31:42;;;;;;;13.00;7.80;;;-1.30;99.90;;;;;;4989894;28;20503;-84
2021/01/10 06:34:10;;;;;;;9.17;6.43;;;-1.30;99.90;;;;;;4992444;28;20945;-87
2021/01/10 06:36:36;;;;;;;11.50;7.50;;;-1.30;99.90;;;;;;4992546;28;20508;-84
2021/01/10 06:39:06;;;;;;;14.93;7.33;;;-1.40;99.90;;;;;;4988346;28;20441;-87
2021/01/10 06:41:35;;;;;;;15.20;9.30;;;-1.40;99.90;;;;;;4989620;28;20986;-85
2021/01/10 06:44:05;;;;;;;13.77;7.90;;;-1.50;99.90;;;;;;4986879;28;20455;-85
2021/01/10 06:46:32;;;;;;;16.30;8.57;;;-1.50;99.90;;;;;;4987043;28;20935;-83
2021/01/10 06:49:00;;;;;;;14.23;8.90;;;-1.60;99.90;;;;;;4981937;28;20460;-85
2021/01/10 06:51:28;;;;;;;10.87;6.30;;;-1.60;99.90;;;;;;4985964;28;20841;-83
2021/01/10 06:53:55;;;;;;;11.83;6.33;;;-1.60;99.90;;;;;;4982973;28;20751;-84
2021/01/10 06:56:21;;;;;;;14.87;7.60;;;-1.60;99.90;;;;;;4983868;28;20507;-85
2021/01/10 06:59:09;;;;;;;11.50;7.90;;;-1.70;99.90;;;;;;4982973;28;20433;-83
2021/01/10 07:01:53;;;;;;;14.13;7.83;;;-1.70;99.90;;;;;;4981544;28;20464;-83
2021/01/10 07:04:46;;;;;;;10.50;6.60;;;-1.70;99.90;;;;;;4980630;28;20457;-83
2021/01/10 07:07:30;;;;;;;10.83;7.50;;;-1.70;99.90;;;;;;4975462;28;20442;-81
2021/01/10 07:09:55;;;;;;;11.47;7.50;;;-1.70;99.90;;;;;;4979963;28;20503;-83
2021/01/10 07:12:22;;;;;;;11.80;6.73;;;-1.70;99.90;;;;;;4982799;28;20457;-87
2021/01/10 07:14:48;;;;;;;13.27;7.97;;;-1.70;99.90;;;;;;4979238;28;20585;-84
2021/01/10 07:17:15;;;;;;;12.33;7.97;;;-1.70;99.90;;;;;;4981514;28;20464;-81
2021/01/10 07:19:46;;;;;;;15.43;7.10;;;-1.70;99.90;;;;;;4979470;28;20528;-80
2021/01/10 07:22:25;;;;;;;14.50;7.13;;;-1.70;99.90;;;;;;4981166;28;20433;-84
2021/01/10 07:24:50;;;;;;;10.00;6.97;;;-1.60;99.90;;;;;;4980134;28;20984;-83
2021/01/10 07:27:33;;;;;;;11.80;5.93;;;-1.60;99.90;;;;;;4981228;28;20481;-82
2021/01/10 07:30:23;;;;;;;15.47;7.73;;;-1.60;99.90;;;;;;4981609;28;20197;-84
2021/01/10 07:32:49;;;;;;;12.30;7.77;;;-1.60;99.90;;;;;;4979575;28;20586;-85
2021/01/10 07:35:15;;;;;;;13.57;8.23;;;-1.50;99.90;;;;;;4982241;28;20449;-84
2021/01/10 07:37:41;;;;;;;16.30;8.73;;;-1.40;99.90;;;;;;4979649;28;20194;-84
2021/01/10 07:40:08;;;;;;;12.10;7.20;;;-1.30;99.90;;;;;;4980757;28;20200;-82
2021/01/10 07:42:36;;;;;;;13.70;9.23;;;-1.20;99.90;;;;;;4981259;28;20462;-83
2021/01/10 07:45:22;;;;;;;10.80;7.17;;;-1.10;99.90;;;;;;4981522;28;20450;-83
2021/01/10 07:47:48;;;;;;;13.67;9.37;;;-1.00;99.90;;;;;;4982712;28;20753;-85
2021/01/10 07:50:17;;;;;;;14.20;8.07;;;-0.90;99.90;;;;;;4980164;28;20438;-81
2021/01/10 07:52:42;;;;;;;14.43;8.47;;;-0.70;99.90;;;;;;4981936;28;20968;-83
2021/01/10 07:55:23;;;;;;;15.63;10.00;;;-0.70;99.90;;;;;;4980162;28;20481;-83
2021/01/10 07:58:01;;;;;;;16.33;9.47;;;-0.60;99.90;;;;;;4981996;28;20283;-84
2021/01/10 08:00:32;;;;;;;13.47;8.80;;;-0.50;99.90;;;;;;4981556;28;20432;-83
2021/01/10 08:03:07;;;;;;;16.10;9.57;;;-0.40;99.90;;;;;;4984307;28;20473;-83
2021/01/10 08:05:41;;;;;;;12.87;8.70;;;-0.30;99.90;;;;;;4985111;28;20540;-81
2021/01/10 08:08:07;;;;;;;15.63;8.27;;;-0.30;99.90;;;;;;4983557;28;20543;-83
2021/01/10 08:10:51;;;;;;;12.60;8.80;;;-0.30;99.90;;;;;;4983532;28;20459;-85
2021/01/10 08:13:26;;;;;;;12.67;8.10;;;-0.20;99.90;;;;;;4983858;28;20242;-83
2021/01/10 08:15:52;;;;;;;14.40;8.10;;;-0.20;99.90;;;;;;4985970;28;20575;-86
2021/01/10 08:18:22;;;;;;;17.27;8.60;;;-0.20;99.90;;;;;;4985482;28;20460;-83
2021/01/10 08:20:52;;;;;;;17.73;8.93;;;-0.30;99.90;;;;;;4983863;28;20464;-82
2021/01/10 08:23:18;;;;;;;15.90;8.57;;;-0.20;99.90;;;;;;4984659;28;20451;-84
2021/01/10 08:25:45;;;;;;;14.10;8.43;;;-0.20;99.90;;;;;;4983938;28;20848;-82
2021/01/10 08:28:16;;;;;;;10.40;7.53;;;-0.20;99.90;;;;;;4986021;28;20447;-80
2021/01/10 08:30:42;;;;;;;10.17;7.97;;;-0.10;99.90;;;;;;4983616;28;20460;-85
2021/01/10 08:33:08;;;;;;;13.63;8.13;;;0.00;99.90;;;;;;4980897;28;20988;-81
2021/01/10 08:35:33;;;;;;;17.43;9.60;;;0.00;99.90;;;;;;4986086;28;20640;-81
2021/01/10 08:38:02;;;;;;;13.70;6.97;;;0.00;99.90;;;;;;4981072;28;20198;-82
2021/01/10 08:40:27;;;;;;;16.47;7.73;;;0.00;99.90;;;;;;4976431;28;20208;-85
2021/01/10 08:43:03;;;;;;;12.77;8.10;;;0.10;99.90;;;;;;4982306;28;20788;-83
2021/01/10 08:45:29;;;;;;;13.03;8.00;;;0.20;99.90;;;;;;4986256;28;20658;-82
2021/01/10 08:47:55;;;;;;;14.73;7.97;;;0.20;99.90;;;;;;4985721;28;20442;-86
2021/01/10 08:50:24;;;;;;;15.30;10.07;;;0.30;99.90;;;;;;4988222;28;20435;-83
2021/01/10 08:52:59;;;;;;;12.70;9.13;;;0.20;99.90;;;;;;5003591;28;20218;-83
2021/01/10 08:55:33;;;;;;;12.50;8.87;;;0.20;99.90;;;;;;4985859;28;20474;-82
2021/01/10 08:58:00;;;;;;;13.10;8.10;;;0.30;99.90;;;;;;4987167;28;20445;-82
2021/01/10 09:00:26;;;;;;;13.60;8.37;;;0.40;99.90;;;;;;4985287;28;20816;-80
2021/01/10 09:02:52;;;;;;;13.30;7.77;;;0.40;99.90;;;;;;4972551;28;20454;-81
2021/01/10 09:05:27;;;;;;;11.10;7.57;;;0.50;99.90;;;;;;4983306;28;20450;-81
2021/01/10 09:08:00;;;;;;;13.07;7.77;;;0.70;99.90;;;;;;4999997;28;20196;-81
2021/01/10 09:10:30;;;;;;;19.37;9.13;;;0.80;99.90;;;;;;4983208;28;20492;-84
2021/01/10 09:13:02;;;;;;;13.43;9.07;;;0.90;99.90;;;;;;4983961;28;20471;-81
2021/01/10 09:15:34;;;;;;;12.43;7.77;;;0.90;99.90;;;;;;4984031;28;20500;-82
2021/01/10 09:18:17;;;;;;;11.13;7.77;;;0.90;99.90;;;;;;4998959;28;20465;-83
2021/01/10 09:20:56;;;;;;;14.30;9.60;;;0.90;99.90;;;;;;4988292;28;20550;-84
2021/01/10 09:23:25;;;;;;;14.00;8.90;;;1.00;99.90;;;;;;4986418;28;20440;-84
2021/01/10 09:25:51;;;;;;;12.10;7.67;;;1.20;99.90;;;;;;4986609;28;20477;-81
2021/01/10 09:28:18;;;;;;;10.23;7.40;;;1.20;99.90;;;;;;4997997;28;20535;-82
2021/01/10 09:30:55;;;;;;;15.57;7.77;;;1.10;99.90;;;;;;4984629;28;20197;-86
2021/01/10 09:33:29;;;;;;;8.77;5.83;;;0.90;99.90;;;;;;4988725;28;20462;-86
2021/01/10 09:35:56;;;;;;;9.17;7.40;;;0.80;99.90;;;;;;4990346;28;20486;-84
2021/01/10 09:38:24;;;;;;;11.60;7.13;;;0.70;99.90;;;;;;4992599;28;20435;-84
2021/01/10 09:41:15;;;;;;;11.23;7.37;;;0.90;99.90;;;;;;4985647;28;20436;-84
2021/01/10 09:43:49;;;;;;;15.90;8.47;;;0.90;99.90;;;;;;4992413;28;20479;-89
2021/01/10 09:46:37;;;;;;;14.47;8.60;;;1.00;99.90;;;;;;4991782;28;20475;-85
2021/01/10 09:49:29;;;;;;;9.67;6.27;;;1.00;99.90;;;;;;4992776;28;20446;-87
2021/01/10 09:52:10;;;;;;;11.50;7.90;;;0.90;99.90;;;;;;4990783;28;20950;-87
2021/01/10 09:54:36;;;;;;;14.83;8.57;;;0.80;99.90;;;;;;4995016;28;20431;-85
2021/01/10 09:57:13;;;;;;;15.03;8.93;;;0.80;99.90;;;;;;4992546;28;20463;-84
2021/01/10 09:59:53;;;;;;;16.53;7.67;;;0.80;99.90;;;;;;4985501;28;20506;-88
2021/01/10 10:02:41;;;;;;;11.17;7.00;;;0.90;99.90;;;;;;4983490;28;20470;-87
2021/01/10 10:05:28;;;;;;;11.43;6.60;;;0.80;99.90;;;;;;4985824;28;20428;-84
2021/01/10 10:08:05;;;;;;;11.10;6.90;;;0.80;99.90;;;;;;4973903;28;20575;-82
2021/01/10 10:10:35;;;;;;;12.43;6.70;;;0.90;99.90;;;;;;4992419;28;20785;-84
2021/01/10 10:13:09;;;;;;;9.40;7.07;;;0.80;99.90;;;;;;4987272;28;20466;-87
2021/01/10 10:15:58;;;;;;;4.87;3.77;;;0.80;99.90;;;;;;4984364;28;20475;-87
2021/01/10 10:18:28;;;;;;;10.40;6.10;;;0.80;99.90;;;;;;5000536;28;20504;-89
2021/01/10 10:21:00;;;;;;;12.27;8.60;;;0.80;99.90;;;;;;4983088;28;20471;-89
2021/01/10 10:23:52;;;;;;;10.93;6.90;;;0.90;99.90;;;;;;4978817;28;20547;-84
2021/01/10 10:26:27;;;;;;;13.77;7.50;;;0.90;99.90;;;;;;4984489;28;20441;-85
2021/01/10 10:28:57;;;;;;;9.07;5.07;;;0.90;99.90;;;;;;4985409;28;20450;-83
2021/01/10 10:31:30;;;;;;;12.70;7.33;;;1.00;99.90;;;;;;4983864;28;20446;-83
2021/01/10 10:34:13;;;;;;;11.03;6.13;;;1.00;99.90;;;;;;4968294;28;20849;-82
2021/01/10 10:40:12;;;;;;;6.17;4.80;;;1.10;99.90;;;;;;4981743;28;20506;-88
2021/01/10 10:43:14;;;;;;;;;;;;;;;;;;;;;
2021/01/10 10:45:43;;;;;;;9.80;6.20;;;1.20;99.90;;;;;;4985550;28;20451;-85
2021/01/10 10:48:14;;;;;;;9.60;6.00;;;1.30;99.90;;;;;;4985812;28;20448;-86
2021/01/10 10:50:40;;;;;;;12.60;6.70;;;1.30;99.90;;;;;;4986193;28;20431;-85
2021/01/10 10:54:01;;;;;;;5.30;4.07;;;1.30;99.90;;;;;;4983862;28;20476;-84
2021/01/10 10:56:44;;;;;;;11.73;6.10;;;1.30;99.90;;;;;;4990798;28;20479;-83
2021/01/10 10:59:21;;;;;;;5.93;4.73;;;1.30;99.90;;;;;;4981671;28;20437;-86
2021/01/10 11:01:54;;;;;;;7.13;4.43;;;1.30;99.90;;;;;;4996891;28;20459;-89
2021/01/10 11:04:42;;;;;;;5.70;5.00;;;1.30;99.90;;;;;;4981676;28;20533;-88
2021/01/10 11:07:21;;;;;;;8.37;5.67;;;1.30;99.90;;;;;;4981584;28;20462;-83
2021/01/10 11:10:00;;;;;;;6.80;4.77;;;1.40;99.90;;;;;;4979591;28;20454;-86
2021/01/10 11:12:32;;;;;;;8.53;5.73;;;1.40;99.90;;;;;;4983466;28;20550;-84
2021/01/10 11:15:24;;;;;;;;;;;;;;;;;;;;;
2021/01/10 11:17:59;;;;;;;8.97;4.90;;;1.50;99.90;;;;;;4981399;28;20444;-87
2021/01/10 11:20:33;;;;;;;7.40;4.93;;;1.60;99.90;;;;;;4979507;28;21091;-84
2021/01/10 11:23:02;;;;;;;7.17;5.43;;;1.50;99.90;;;;;;4979822;28;20523;-85
2021/01/10 11:25:40;;;;;;;6.57;4.97;;;1.60;99.90;;;;;;4981644;28;21279;-87
2021/01/10 11:28:17;;;;;;;8.93;6.00;;;1.60;99.90;;;;;;4983326;28;20441;-89
2021/01/10 11:30:52;;;;;;;9.07;6.50;;;1.60;99.90;;;;;;4964263;28;20448;-85
2021/01/10 11:39:55;;;;;;;9.03;6.10;;;1.70;99.90;;;;;;4901381;28;20445;-88
2021/01/10 11:43:03;;;;;;;14.00;6.40;;;1.70;99.90;;;;;;4983872;28;20463;-86
2021/01/10 11:45:54;;;;;;;6.50;4.33;;;1.70;99.90;;;;;;4983852;28;20491;-90
2021/01/10 12:09:29;;;;;;;6.20;4.80;;;2.10;99.90;;;;;;4909106;29;20454;-92
2021/01/10 13:12:38;;;;;;;10.87;5.20;;;2.90;99.90;;;;;;3259938;26;20483;-90
2021/01/10 13:15:22;;;;;;;6.00;4.33;;;2.90;99.90;;;;;;5002040;28;20443;-87
2021/01/10 13:24:40;;;;;;;6.87;5.13;;;2.80;99.90;;;;;;5006636;28;20436;-87
2021/01/10 13:27:09;;;;;;;7.67;5.30;;;2.80;99.90;;;;;;5009021;28;20456;-85
2021/01/10 13:33:13;;;;;;;;;;;;;;;;;;;;;
2021/01/10 13:39:03;;;;;;;6.60;4.50;;;2.90;99.90;;;;;;4939703;28;20825;-88
2021/01/10 13:42:24;;;;;;;7.03;4.27;;;2.80;99.90;;;;;;4919770;29;20427;-90
2021/01/10 13:49:09;;;;;;;;;;;;;;;;;;;;;
2021/01/10 14:10:27;;;;;;;9.07;5.40;;;2.60;99.90;;;;;;4921419;26;20464;-87
2021/01/10 14:12:55;;;;;;;9.60;5.77;;;2.60;99.90;;;;;;5003247;28;20547;-90
2021/01/10 14:15:21;;;;;;;8.23;4.83;;;2.60;99.90;;;;;;5001066;28;20443;-89
2021/01/10 14:17:52;;;;;;;4.13;3.17;;;2.50;99.90;;;;;;4988206;28;20459;-89
2021/01/10 14:20:17;;;;;;;6.13;3.73;;;2.50;99.90;;;;;;5000969;28;20439;-87
2021/01/10 14:22:43;;;;;;;8.97;5.90;;;2.50;99.90;;;;;;5002431;28;20448;-89
2021/01/10 14:25:18;;;;;;;6.40;3.97;;;2.50;99.90;;;;;;5001829;28;20193;-86
2021/01/10 14:30:42;;;;;;;5.90;4.40;;;2.50;99.90;;;;;;5006224;28;20479;-85
2021/01/10 14:33:18;;;;;;;7.67;4.70;;;2.50;99.90;;;;;;4990245;28;20464;-86
2021/01/10 14:35:49;;;;;;;5.63;3.90;;;2.40;99.90;;;;;;5003739;28;20992;-87
2021/01/10 14:38:23;;;;;;;9.17;5.63;;;2.40;99.90;;;;;;5004490;28;20455;-87
2021/01/10 14:40:51;;;;;;;9.30;5.60;;;2.40;99.90;;;;;;5001787;28;20423;-86
2021/01/10 14:43:22;;;;;;;9.53;5.67;;;2.30;99.90;;;;;;5007197;28;20457;-86
2021/01/10 14:45:48;;;;;;;11.27;6.07;;;2.30;99.90;;;;;;5005242;28;20448;-86
2021/01/10 14:48:13;;;;;;;8.43;5.20;;;2.30;99.90;;;;;;5005160;28;20451;-88
2021/01/10 14:50:39;;;;;;;10.00;6.07;;;2.30;99.90;;;;;;5003673;28;20202;-88
2021/01/10 14:53:05;;;;;;;12.10;7.13;;;2.30;99.90;;;;;;4988373;28;20224;-86
2021/01/10 14:55:33;;;;;;;11.43;5.97;;;2.20;99.90;;;;;;5002625;28;20279;-87
2021/01/10 14:57:58;;;;;;;8.60;5.97;;;2.20;99.90;;;;;;5006040;28;20242;-88
2021/01/10 15:00:27;;;;;;;8.33;5.10;;;2.20;99.90;;;;;;5004858;28;20824;-90
2021/01/10 15:02:52;;;;;;;7.47;5.77;;;2.20;99.90;;;;;;5000044;28;20244;-90
2021/01/10 15:05:20;;;;;;;10.93;6.67;;;2.20;99.90;;;;;;5004967;28;20433;-86
2021/01/10 15:07:46;;;;;;;8.17;4.57;;;2.20;99.90;;;;;;5002275;28;20586;-88
2021/01/10 15:10:12;;;;;;;9.37;6.30;;;2.20;99.90;;;;;;5006941;28;20459;-89
2021/01/10 15:12:38;;;;;;;9.23;5.50;;;2.10;99.90;;;;;;5004506;28;20208;-89
2021/01/10 15:15:04;;;;;;;9.73;6.80;;;2.10;99.90;;;;;;5016738;28;20456;-89
2021/01/10 15:17:30;;;;;;;9.20;5.67;;;2.20;99.90;;;;;;5006493;28;20588;-88
2021/01/10 15:19:58;;;;;;;10.23;6.43;;;2.10;99.90;;;;;;4991271;28;20439;-86